createdAt,value
2019-02-09T00:02:28.913Z,2.30
2019-02-09T00:05:08.527Z,2.40
2019-02-09T00:07:39.545Z,3.42
2019-02-09T00:10:10.484Z,3.75
2019-02-09T00:12:41.490Z,3.40
2019-02-09T00:15:13.320Z,3.05
2019-02-09T00:17:51.077Z,3.58
2019-02-09T00:20:35.185Z,2.92
2019-02-09T00:23:10.068Z,3.40
2019-02-09T00:25:40.028Z,3.25
2019-02-09T00:28:12.168Z,3.77
2019-02-09T00:30:48.110Z,3.60
2019-02-09T00:33:25.952Z,3.42
2019-02-09T00:36:44.734Z,3.72
2019-02-09T00:39:58.201Z,3.65
2019-02-09T00:45:40.066Z,3.55
2019-02-09T00:48:25.485Z,3.55
2019-02-09T00:51:09.624Z,4.67
2019-02-09T00:54:00.670Z,4.17
2019-02-09T00:57:13.117Z,3.87
2019-02-09T01:00:37.932Z,3.42
2019-02-09T01:04:20.900Z,4.60
2019-02-09T01:07:14.914Z,3.83
2019-02-09T01:10:09.188Z,3.95
2019-02-09T01:12:50.402Z,4.12
2019-02-09T01:15:32.730Z,3.83
2019-02-09T01:18:32.296Z,4.30
2019-02-09T01:21:49.562Z,3.70
2019-02-09T01:24:22.756Z,3.90
2019-02-09T01:26:52.867Z,3.20
2019-02-09T01:29:44.968Z,3.58
2019-02-09T01:32:14.933Z,4.58
2019-02-09T01:34:46.988Z,4.40
2019-02-09T01:37:33.168Z,3.70
2019-02-09T01:40:21.987Z,4.58
2019-02-09T01:42:53.315Z,3.75
2019-02-09T01:45:40.489Z,3.80
2019-02-09T01:51:59.230Z,4.67
2019-02-09T01:54:35.612Z,3.98
2019-02-09T01:57:06.688Z,3.70
2019-02-09T01:59:42.624Z,4.22
2019-02-09T02:02:14.805Z,4.85
2019-02-09T02:04:50.848Z,3.92
2019-02-09T02:07:41.928Z,3.90
2019-02-09T02:10:31.736Z,3.22
2019-02-09T02:13:14.448Z,4.55
2019-02-09T02:15:45.522Z,4.08
2019-02-09T02:18:23.644Z,3.75
2019-02-09T02:21:08.876Z,4.58
2019-02-09T02:23:39.924Z,4.75
2019-02-09T02:26:10.040Z,4.15
2019-02-09T02:28:42.102Z,3.85
2019-02-09T02:31:30.474Z,3.80
2019-02-09T02:34:15.576Z,4.05
2019-02-09T02:37:14.678Z,3.92
2019-02-09T02:39:54.549Z,4.10
2019-02-09T02:42:32.934Z,3.70
2019-02-09T02:45:17.049Z,4.42
2019-02-09T02:47:57.144Z,3.42
2019-02-09T02:50:52.423Z,3.58
2019-02-09T02:53:34.488Z,4.30
2019-02-09T02:56:05.412Z,4.33
2019-02-09T02:58:55.504Z,3.87
2019-02-09T03:01:26.560Z,4.28
2019-02-09T03:04:10.728Z,4.10
2019-02-09T03:06:41.476Z,4.37
2019-02-09T03:09:12.114Z,3.92
2019-02-09T03:11:51.787Z,3.60
2019-02-09T03:14:33.342Z,3.58
2019-02-09T03:17:44.766Z,3.50
2019-02-09T03:20:17.984Z,4.40
2019-02-09T03:22:54.128Z,3.33
2019-02-09T03:25:36.301Z,3.77
2019-02-09T03:28:19.420Z,3.33
2019-02-09T03:30:53.366Z,4.40
2019-02-09T03:33:24.398Z,3.62
2019-02-09T03:35:58.084Z,3.62
2019-02-09T03:38:46.144Z,3.98
2019-02-09T03:41:25.383Z,3.10
2019-02-09T03:44:00.291Z,3.37
2019-02-09T03:46:42.609Z,3.50
2019-02-09T03:49:53.931Z,2.98
2019-02-09T03:52:56.109Z,3.58
2019-02-09T03:56:16.732Z,4.87
2019-02-09T03:58:53.886Z,4.05
2019-02-09T04:02:08.290Z,3.08
2019-02-09T04:04:47.417Z,2.98
2019-02-09T04:07:28.808Z,3.80
2019-02-09T04:10:05.752Z,4.30
2019-02-09T04:12:56.812Z,3.50
2019-02-09T04:15:33.967Z,3.50
2019-02-09T04:18:14.036Z,3.35
2019-02-09T04:21:26.856Z,3.33
2019-02-09T04:24:55.457Z,3.52
2019-02-09T04:27:27.281Z,3.42
2019-02-09T04:29:57.244Z,2.77
2019-02-09T04:32:55.005Z,3.45
2019-02-09T04:35:47.478Z,3.50
2019-02-09T04:38:52.113Z,3.95
2019-02-09T04:42:03.524Z,2.70
2019-02-09T04:44:42.898Z,3.37
2019-02-09T04:47:43.111Z,3.25
2019-02-09T04:50:30.128Z,2.98
2019-02-09T04:53:09.124Z,2.40
2019-02-09T04:55:40.102Z,3.50
2019-02-09T04:58:16.549Z,2.83
2019-02-09T05:00:47.624Z,2.70
2019-02-09T05:03:48.902Z,4.33
2019-02-09T05:06:31.984Z,3.33
2019-02-09T05:09:02.999Z,3.77
2019-02-09T05:11:38.981Z,3.00
2019-02-09T05:14:11.031Z,3.20
2019-02-09T05:16:51.985Z,2.47
2019-02-09T05:19:21.972Z,3.05
2019-02-09T05:21:53.061Z,2.30
2019-02-09T05:24:34.557Z,3.37
2019-02-09T05:27:12.196Z,3.75
2019-02-09T05:29:42.202Z,3.17
2019-02-09T05:32:28.465Z,2.98
2019-02-09T05:35:11.177Z,2.40
2019-02-09T05:38:29.590Z,3.60
2019-02-09T05:41:11.474Z,2.67
2019-02-09T05:43:42.463Z,2.95
2019-02-09T05:46:56.983Z,3.10
2019-02-09T05:49:46.245Z,3.40
2019-02-09T05:52:34.923Z,2.60
2019-02-09T05:55:16.709Z,3.47
2019-02-09T05:57:56.590Z,2.95
2019-02-09T06:00:50.811Z,2.62
2019-02-09T06:07:08.873Z,2.95
2019-02-09T06:09:57.190Z,2.85
2019-02-09T06:12:46.345Z,2.90
2019-02-09T06:15:24.605Z,3.12
2019-02-09T06:18:02.346Z,2.75
2019-02-09T06:20:45.444Z,3.60
2019-02-09T06:23:15.541Z,2.75
2019-02-09T06:25:45.630Z,3.15
2019-02-09T06:29:05.269Z,3.33
2019-02-09T06:31:40.534Z,3.55
2019-02-09T06:34:09.834Z,2.80
2019-02-09T06:36:40.178Z,3.05
2019-02-09T06:39:11.263Z,4.00
2019-02-09T06:41:41.366Z,3.77
2019-02-09T06:44:12.418Z,2.95
2019-02-09T06:46:44.242Z,2.50
2019-02-09T06:49:18.433Z,2.80
2019-02-09T06:51:49.245Z,3.52
2019-02-09T06:54:19.206Z,2.80
2019-02-09T06:56:50.514Z,3.05
2019-02-09T06:59:22.551Z,3.65
2019-02-09T07:01:52.641Z,4.03
2019-02-09T07:04:23.713Z,3.40
2019-02-09T07:06:53.819Z,2.50
2019-02-09T07:09:27.123Z,3.35
2019-02-09T07:11:58.175Z,3.35
2019-02-09T07:14:28.017Z,3.25
2019-02-09T07:16:57.721Z,3.65
2019-02-09T07:19:36.734Z,2.52
2019-02-09T07:22:06.697Z,2.77
2019-02-09T07:24:41.413Z,3.08
2019-02-09T07:27:17.421Z,2.67
2019-02-09T07:29:53.597Z,3.15
2019-02-09T07:32:23.731Z,3.37
2019-02-09T07:34:59.855Z,2.87
2019-02-09T07:37:29.955Z,3.33
2019-02-09T07:39:59.774Z,3.20
2019-02-09T07:42:32.125Z,2.98
2019-02-09T07:45:06.750Z,3.12
2019-02-09T07:47:36.661Z,2.70
2019-02-09T07:50:14.517Z,2.42
2019-02-09T07:52:46.334Z,2.10
2019-02-09T07:55:19.313Z,2.20
2019-02-09T07:57:50.449Z,1.95
2019-02-09T08:00:35.007Z,1.80
2019-02-09T08:03:05.365Z,1.90
2019-02-09T08:05:35.718Z,2.40
2019-02-09T08:08:06.477Z,2.43
2019-02-09T08:10:39.078Z,1.92
2019-02-09T08:13:10.983Z,2.83
2019-02-09T08:15:41.029Z,4.45
2019-02-09T08:18:13.069Z,2.37
2019-02-09T08:20:44.869Z,3.83
2019-02-09T08:23:16.773Z,2.62
2019-02-09T08:25:46.917Z,2.20
2019-02-09T08:28:16.830Z,6.50
2019-02-09T08:30:52.530Z,2.77
2019-02-09T08:33:23.337Z,3.80
2019-02-09T08:35:53.969Z,2.00
2019-02-09T08:38:24.610Z,2.40
2019-02-09T08:40:54.571Z,2.37
2019-02-09T08:43:24.671Z,2.87
2019-02-09T08:45:57.425Z,3.00
2019-02-09T08:48:27.591Z,2.27
2019-02-09T08:51:03.147Z,2.60
2019-02-09T08:53:33.089Z,1.80
2019-02-09T08:56:03.215Z,1.72
2019-02-09T08:58:33.041Z,2.55
2019-02-09T09:01:08.877Z,1.57
2019-02-09T09:03:39.847Z,1.87
2019-02-09T09:06:09.746Z,2.00
2019-02-09T09:08:42.206Z,2.37
2019-02-09T09:11:12.861Z,1.50
2019-02-09T09:13:42.812Z,2.13
2019-02-09T09:16:13.206Z,2.50
2019-02-09T09:18:43.121Z,2.20
2019-02-09T09:21:13.006Z,2.40
2019-02-09T09:23:42.710Z,2.43
2019-02-09T09:26:13.358Z,1.80
2019-02-09T09:28:43.370Z,3.00
2019-02-09T09:31:13.471Z,2.80
2019-02-09T09:33:43.595Z,2.57
2019-02-09T09:36:13.754Z,2.83
2019-02-09T09:38:48.894Z,2.90
2019-02-09T09:41:25.532Z,2.33
2019-02-09T09:43:56.406Z,2.40
2019-02-09T09:46:27.208Z,2.80
2019-02-09T09:48:57.183Z,2.40
2019-02-09T09:51:29.183Z,2.50
2019-02-09T09:53:59.007Z,2.00
2019-02-09T09:56:28.706Z,1.73
2019-02-09T09:59:04.010Z,2.13
2019-02-09T10:01:40.482Z,2.60
2019-02-09T10:04:10.170Z,2.30
2019-02-09T10:06:41.868Z,1.90
2019-02-09T10:09:11.578Z,1.40
2019-02-09T10:11:41.278Z,1.87
2019-02-09T10:14:11.322Z,1.50
2019-02-09T10:16:41.415Z,1.50
2019-02-09T10:19:12.494Z,1.93
2019-02-09T10:21:45.342Z,1.80
2019-02-09T10:24:17.246Z,2.77
2019-02-09T10:26:47.334Z,1.87
2019-02-09T10:29:17.156Z,1.67
2019-02-09T10:31:53.490Z,2.97
2019-02-09T10:34:25.326Z,1.63
2019-02-09T10:37:00.890Z,4.40
2019-02-09T10:39:31.796Z,1.50
2019-02-09T10:42:14.900Z,1.20
2019-02-09T10:44:46.726Z,1.30
2019-02-09T10:47:17.374Z,1.83
2019-02-09T10:49:55.874Z,1.63
2019-02-09T10:52:28.486Z,0.93
2019-02-09T10:55:05.943Z,0.90
2019-02-09T10:57:35.906Z,1.30
2019-02-09T11:00:15.814Z,1.60
2019-02-09T11:02:52.774Z,1.23
2019-02-09T11:05:23.662Z,4.10
2019-02-09T11:07:58.904Z,1.80
2019-02-09T11:10:30.854Z,2.03
2019-02-09T11:13:02.955Z,1.67
2019-02-09T11:15:36.214Z,0.90
2019-02-09T11:18:06.898Z,1.00
2019-02-09T11:20:38.578Z,1.57
2019-02-09T11:23:10.544Z,3.03
2019-02-09T11:25:41.370Z,2.60
2019-02-09T11:28:12.547Z,2.60
2019-02-09T11:30:42.658Z,3.10
2019-02-09T11:33:18.679Z,2.83
2019-02-09T11:35:50.602Z,2.17
2019-02-09T11:38:22.654Z,1.43
2019-02-09T11:40:52.586Z,1.23
2019-02-09T11:43:22.274Z,1.53
2019-02-09T11:45:52.242Z,2.00
2019-02-09T11:48:22.358Z,1.57
2019-02-09T11:50:53.436Z,0.90
2019-02-09T11:53:33.510Z,0.83
2019-02-09T11:56:04.630Z,1.00
2019-02-09T11:58:43.759Z,1.63
2019-02-09T12:01:13.582Z,1.30
2019-02-09T12:03:45.258Z,1.40
2019-02-09T12:06:15.910Z,0.83
2019-02-09T12:08:49.552Z,1.00
2019-02-09T12:11:22.432Z,1.10
2019-02-09T12:13:58.359Z,0.80
2019-02-09T12:16:29.308Z,1.13
2019-02-09T12:19:01.316Z,1.13
2019-02-09T12:21:32.115Z,1.60
2019-02-09T12:24:03.140Z,2.03
2019-02-09T12:26:33.066Z,1.97
2019-02-09T12:29:04.025Z,1.40
2019-02-09T12:31:35.835Z,3.10
2019-02-09T12:34:14.822Z,1.67
2019-02-09T12:36:47.671Z,1.63
2019-02-09T12:39:18.283Z,2.30
2019-02-09T12:41:53.723Z,6.10
2019-02-09T12:44:23.418Z,3.03
2019-02-09T12:46:53.380Z,2.70
2019-02-09T12:49:24.485Z,3.33
2019-02-09T12:51:56.512Z,5.20
2019-02-09T12:54:26.350Z,2.57
2019-02-09T12:56:56.326Z,0.97
2019-02-09T12:59:33.285Z,0.70
2019-02-09T13:02:06.409Z,0.80
2019-02-09T13:04:37.447Z,0.97
2019-02-09T13:07:14.519Z,0.80
2019-02-09T13:09:45.456Z,0.90
2019-02-09T13:12:22.544Z,0.90
2019-02-09T13:14:54.620Z,1.30
2019-02-09T13:17:25.390Z,0.97
2019-02-09T13:19:55.078Z,0.80
2019-02-09T13:22:25.050Z,0.83
2019-02-09T13:25:01.091Z,1.13
2019-02-09T13:27:34.307Z,0.90
2019-02-09T13:30:09.981Z,1.37
2019-02-09T13:32:40.996Z,1.03
2019-02-09T13:35:13.575Z,1.43
2019-02-09T13:37:44.380Z,1.57
2019-02-09T13:40:23.385Z,1.10
2019-02-09T13:42:58.107Z,0.87
2019-02-09T13:45:30.306Z,1.40
2019-02-09T13:48:04.994Z,1.67
2019-02-09T13:50:35.267Z,1.10
2019-02-09T13:53:06.143Z,1.33
2019-02-09T13:55:43.234Z,1.03
2019-02-09T13:58:13.167Z,1.30
2019-02-09T14:00:49.255Z,1.10
2019-02-09T14:03:22.344Z,1.17
2019-02-09T14:05:53.418Z,2.60
2019-02-09T14:08:25.487Z,1.07
2019-02-09T14:10:55.581Z,1.00
2019-02-09T14:13:27.431Z,1.37
2019-02-09T14:15:57.394Z,1.07
2019-02-09T14:18:34.239Z,1.17
2019-02-09T14:21:04.431Z,1.43
2019-02-09T14:23:35.495Z,1.20
2019-02-09T14:26:06.386Z,1.40
2019-02-09T14:28:38.578Z,0.90
2019-02-09T14:31:09.707Z,2.03
2019-02-09T14:33:39.679Z,1.60
2019-02-09T14:36:11.387Z,1.20
2019-02-09T14:38:42.039Z,1.03
2019-02-09T14:41:11.815Z,1.00
2019-02-09T14:43:41.583Z,1.07
2019-02-09T14:46:12.276Z,1.03
2019-02-09T14:48:43.569Z,1.10
2019-02-09T14:51:13.571Z,1.67
2019-02-09T14:53:43.567Z,4.20
2019-02-09T14:56:20.414Z,3.77
2019-02-09T14:58:50.519Z,0.80
2019-02-09T15:01:25.471Z,1.30
2019-02-09T15:04:02.695Z,1.77
2019-02-09T15:06:27.909Z,1.83
2019-02-09T15:09:06.147Z,1.47
2019-02-09T15:11:37.075Z,1.30
2019-02-09T15:14:26.256Z,1.47
2019-02-09T15:16:56.819Z,1.40
2019-02-09T15:19:30.779Z,1.43
2019-02-09T15:22:02.279Z,1.20
2019-02-09T15:24:32.470Z,3.40
2019-02-09T15:27:11.951Z,1.33
2019-02-09T15:29:42.061Z,0.97
2019-02-09T15:32:13.913Z,1.53
2019-02-09T15:34:44.631Z,1.57
2019-02-09T15:37:14.575Z,1.70
2019-02-09T15:39:44.715Z,0.80
2019-02-09T15:42:16.104Z,1.23
2019-02-09T15:44:46.015Z,1.23
2019-02-09T15:47:17.703Z,1.47
2019-02-09T15:49:47.395Z,2.77
2019-02-09T15:52:18.081Z,1.20
2019-02-09T15:54:50.796Z,4.30
2019-02-09T15:57:20.753Z,1.67
2019-02-09T15:59:51.876Z,1.63
2019-02-09T16:02:22.031Z,1.30
2019-02-09T16:04:51.980Z,1.17
2019-02-09T16:07:22.719Z,1.47
2019-02-09T16:09:52.493Z,1.40
2019-02-09T16:12:22.354Z,0.95
2019-02-09T16:14:52.333Z,1.00
2019-02-09T16:17:22.859Z,1.42
2019-02-09T16:19:53.928Z,1.60
2019-02-09T16:22:34.487Z,1.35
2019-02-09T16:25:09.087Z,1.45
2019-02-09T16:27:38.925Z,1.87
2019-02-09T16:30:29.055Z,1.25
2019-02-09T16:32:58.823Z,1.22
2019-02-09T16:35:31.397Z,1.20
2019-02-09T16:38:01.559Z,1.60
2019-02-09T16:40:35.872Z,1.75
2019-02-09T16:43:06.187Z,1.75
2019-02-09T16:45:38.155Z,2.30
2019-02-09T16:48:11.789Z,2.60
2019-02-09T16:50:41.631Z,2.10
2019-02-09T16:53:13.531Z,2.35
2019-02-09T16:55:43.401Z,1.52
2019-02-09T16:58:13.383Z,2.98
2019-02-09T17:00:46.147Z,2.33
2019-02-09T17:03:18.951Z,3.08
2019-02-09T17:05:50.877Z,2.17
2019-02-09T17:08:26.512Z,1.50
2019-02-09T17:10:57.128Z,1.35
2019-02-09T17:13:28.027Z,1.35
2019-02-09T17:16:01.055Z,1.10
2019-02-09T17:18:31.048Z,1.67
2019-02-09T17:21:00.880Z,1.20
2019-02-09T17:23:31.762Z,1.40
2019-02-09T17:26:03.640Z,1.27
2019-02-09T17:28:33.356Z,0.80
2019-02-09T17:31:03.346Z,2.42
2019-02-09T17:33:33.185Z,1.37
2019-02-09T17:36:03.143Z,1.00
2019-02-09T17:38:35.264Z,1.43
2019-02-09T17:41:05.989Z,1.07
2019-02-09T17:43:36.894Z,1.30
2019-02-09T17:46:13.472Z,1.20
2019-02-09T17:48:46.080Z,0.88
2019-02-09T17:51:17.792Z,1.12
2019-02-09T17:53:47.484Z,0.88
2019-02-09T17:56:17.188Z,1.55
2019-02-09T17:58:46.928Z,1.35
2019-02-09T18:01:17.872Z,1.15
2019-02-09T18:03:47.708Z,0.98
2019-02-09T18:06:17.431Z,1.57
2019-02-09T18:08:48.049Z,1.00
2019-02-09T18:11:19.395Z,0.88
2019-02-09T18:13:50.069Z,1.20
2019-02-09T18:16:23.400Z,1.15
2019-02-09T18:18:55.264Z,1.20
2019-02-09T18:21:25.393Z,2.22
2019-02-09T18:23:56.176Z,1.00
2019-02-09T18:26:25.884Z,1.27
2019-02-09T18:29:01.428Z,1.00
2019-02-09T18:31:32.152Z,1.40
2019-02-09T18:34:07.996Z,1.87
2019-02-09T18:36:38.132Z,1.82
2019-02-09T18:39:11.020Z,2.47
2019-02-09T18:41:40.855Z,2.35
2019-02-09T18:44:10.833Z,2.45
2019-02-09T18:46:47.873Z,3.45
2019-02-09T18:49:23.724Z,1.37
2019-02-09T18:51:54.088Z,2.05
2019-02-09T18:54:24.432Z,1.20
2019-02-09T18:56:54.294Z,2.65
2019-02-09T18:59:27.096Z,1.70
2019-02-09T19:01:57.828Z,1.80
2019-02-09T19:04:29.580Z,1.80
2019-02-09T19:06:59.300Z,3.30
2019-02-09T19:09:33.125Z,2.35
2019-02-09T19:12:03.952Z,4.50
2019-02-09T19:14:33.936Z,2.40
2019-02-09T19:17:04.437Z,1.37
2019-02-09T19:19:34.976Z,1.32
2019-02-09T19:22:05.240Z,1.45
2019-02-09T19:24:37.284Z,1.62
2019-02-09T19:27:08.054Z,1.52
2019-02-09T19:29:38.912Z,1.95
2019-02-09T19:32:09.905Z,1.32
2019-02-09T19:34:40.052Z,1.30
2019-02-09T19:37:09.880Z,2.00
2019-02-09T19:39:41.152Z,1.62
2019-02-09T19:42:10.988Z,1.70
2019-02-09T19:44:40.708Z,2.00
2019-02-09T19:47:11.297Z,1.77
2019-02-09T19:49:47.066Z,1.70
2019-02-09T19:52:17.192Z,1.60
2019-02-09T19:54:47.293Z,1.67
2019-02-09T19:57:17.428Z,2.20
2019-02-09T19:59:48.411Z,2.33
2019-02-09T20:02:30.512Z,2.22
2019-02-09T20:05:04.500Z,1.77
2019-02-09T20:07:35.160Z,2.10
2019-02-09T20:10:09.772Z,2.33
2019-02-09T20:12:39.688Z,2.30
2019-02-09T20:15:14.228Z,2.60
2019-02-09T20:17:45.040Z,2.22
2019-02-09T20:20:16.469Z,1.80
2019-02-09T20:22:46.472Z,1.85
2019-02-09T20:25:27.022Z,1.75
2019-02-09T20:27:56.834Z,2.52
2019-02-09T20:30:30.657Z,1.15
2019-02-09T20:33:00.356Z,2.75
2019-02-09T20:35:30.214Z,2.25
2019-02-09T20:38:00.001Z,2.33
2019-02-09T20:40:41.332Z,2.52
2019-02-09T20:43:17.914Z,2.30
2019-02-09T20:45:47.873Z,2.08
2019-02-09T20:48:25.601Z,1.87
2019-02-09T20:50:55.419Z,2.27
2019-02-09T20:53:26.384Z,1.95
2019-02-09T20:55:56.257Z,2.47
2019-02-09T20:58:31.713Z,2.17
2019-02-09T21:01:08.509Z,2.10
2019-02-09T21:03:40.635Z,2.25
2019-02-09T21:06:11.889Z,2.27
2019-02-09T21:08:42.005Z,2.35
2019-02-09T21:11:12.089Z,2.92
2019-02-09T21:13:43.836Z,3.52
2019-02-09T21:16:14.513Z,3.40
2019-02-09T21:18:46.421Z,4.42
2019-02-09T21:21:16.277Z,3.30
2019-02-09T21:23:47.701Z,2.65
2019-02-09T21:26:17.545Z,2.40
2019-02-09T21:28:48.209Z,1.80
2019-02-09T21:31:19.853Z,1.98
2019-02-09T21:33:50.731Z,1.55
2019-02-09T21:36:22.796Z,1.90
2019-02-09T21:38:52.668Z,2.20
2019-02-09T21:41:22.377Z,2.35
2019-02-09T21:43:52.337Z,2.55
2019-02-09T21:46:22.197Z,3.17
2019-02-09T21:48:51.908Z,2.85
2019-02-09T21:51:23.837Z,3.27
2019-02-09T21:53:53.701Z,2.22
2019-02-09T21:56:23.385Z,2.70
2019-02-09T21:58:54.969Z,2.20
2019-02-09T22:01:24.653Z,2.87
2019-02-09T22:03:58.329Z,2.90
2019-02-09T22:06:30.234Z,2.90
2019-02-09T22:09:02.221Z,2.77
2019-02-09T22:11:32.185Z,2.30
2019-02-09T22:14:02.011Z,3.02
2019-02-09T22:16:33.845Z,2.22
2019-02-09T22:19:03.916Z,2.02
2019-02-09T22:21:34.111Z,1.90
2019-02-09T22:24:08.341Z,2.02
2019-02-09T22:26:38.475Z,1.70
2019-02-09T22:29:08.569Z,1.95
2019-02-09T22:31:38.722Z,1.95
2019-02-09T22:34:09.202Z,1.57
2019-02-09T22:36:39.302Z,1.75
2019-02-09T22:39:09.981Z,2.17
2019-02-09T22:41:39.946Z,1.37
2019-02-09T22:44:12.012Z,2.05
2019-02-09T22:46:50.054Z,1.75
2019-02-09T22:49:19.904Z,2.27
2019-02-09T22:51:50.791Z,1.82
2019-02-09T22:54:20.661Z,2.12
2019-02-09T22:56:53.485Z,2.50
2019-02-09T22:59:23.481Z,2.12
2019-02-09T23:01:54.706Z,1.90
2019-02-09T23:04:31.813Z,2.50
2019-02-09T23:07:04.605Z,2.85
2019-02-09T23:09:34.695Z,1.92
2019-02-09T23:12:04.885Z,2.77
2019-02-09T23:14:34.863Z,2.55
2019-02-09T23:17:04.764Z,2.60
2019-02-09T23:19:35.413Z,2.27
2019-02-09T23:22:12.713Z,2.17
2019-02-09T23:24:42.685Z,1.72
2019-02-09T23:27:12.828Z,2.27
2019-02-09T23:29:42.681Z,1.70
2019-02-09T23:32:12.642Z,1.87
2019-02-09T23:34:44.758Z,1.77
2019-02-09T23:37:21.934Z,2.08
2019-02-09T23:39:52.973Z,2.12
2019-02-09T23:42:23.709Z,1.80
2019-02-09T23:44:53.665Z,1.80
2019-02-09T23:47:23.822Z,2.20
2019-02-09T23:49:54.576Z,2.20
2019-02-09T23:52:25.621Z,2.30
2019-02-09T23:54:55.437Z,1.42
2019-02-09T23:57:25.424Z,2.05
2019-02-09T23:59:57.306Z,1.50
